Terminal Aerodrome Forecast
Issued by NWS

Home | Current Version | Previous Version | Text Only | Print | Product List | Glossary On
Versions: 1 2 3 4 5 6 7 8 9 10 11 12 13 14 15
225
FTUS46 KSEW 261721
TAFPAE
TAF
KPAE 261721Z 2618/2718 28005KT P6SM FEW250
     FM262200 34008KT P6SM FEW250
     FM271100 17005KT P6SM OVC007=

USA.gov is the U.S. government's official web portal to all federal, state and local government web resources and services.